sensor_id;sensor_type;location;lat;lon;timestamp;P1;durP1;ratioP1;P2;durP2;ratioP2
17308;SDS011;8772;42.804;23.426;2022-07-25T00:01:37;9.73;;;5.13;;
17308;SDS011;8772;42.804;23.426;2022-07-25T00:04:04;8.13;;;4.33;;
17308;SDS011;8772;42.804;23.426;2022-07-25T00:06:32;10.17;;;4.87;;
17308;SDS011;8772;42.804;23.426;2022-07-25T00:08:59;7.20;;;4.10;;
17308;SDS011;8772;42.804;23.426;2022-07-25T00:11:26;8.00;;;4.27;;
17308;SDS011;8772;42.804;23.426;2022-07-25T00:13:53;6.53;;;3.43;;
17308;SDS011;8772;42.804;23.426;2022-07-25T00:16:21;6.60;;;4.07;;
17308;SDS011;8772;42.804;23.426;2022-07-25T00:18:48;6.13;;;3.60;;
17308;SDS011;8772;42.804;23.426;2022-07-25T00:21:15;7.47;;;4.43;;
17308;SDS011;8772;42.804;23.426;2022-07-25T00:23:42;9.60;;;4.77;;
17308;SDS011;8772;42.804;23.426;2022-07-25T00:26:09;6.97;;;4.20;;
17308;SDS011;8772;42.804;23.426;2022-07-25T00:28:36;6.43;;;3.97;;
17308;SDS011;8772;42.804;23.426;2022-07-25T00:31:03;8.63;;;4.53;;
17308;SDS011;8772;42.804;23.426;2022-07-25T00:33:32;7.40;;;3.93;;
17308;SDS011;8772;42.804;23.426;2022-07-25T00:35:59;7.43;;;3.90;;
17308;SDS011;8772;42.804;23.426;2022-07-25T00:38:26;9.80;;;4.10;;
17308;SDS011;8772;42.804;23.426;2022-07-25T00:40:53;8.03;;;4.43;;
17308;SDS011;8772;42.804;23.426;2022-07-25T00:43:20;6.33;;;3.73;;
17308;SDS011;8772;42.804;23.426;2022-07-25T00:45:47;13.03;;;4.90;;
17308;SDS011;8772;42.804;23.426;2022-07-25T00:48:14;8.33;;;4.27;;
17308;SDS011;8772;42.804;23.426;2022-07-25T00:50:43;7.53;;;3.93;;
17308;SDS011;8772;42.804;23.426;2022-07-25T00:53:10;9.57;;;4.10;;
17308;SDS011;8772;42.804;23.426;2022-07-25T00:55:37;7.70;;;4.17;;
17308;SDS011;8772;42.804;23.426;2022-07-25T00:58:04;12.10;;;4.10;;
17308;SDS011;8772;42.804;23.426;2022-07-25T01:00:31;7.00;;;4.07;;
17308;SDS011;8772;42.804;23.426;2022-07-25T01:02:58;6.50;;;4.00;;
17308;SDS011;8772;42.804;23.426;2022-07-25T01:08:48;10.50;;;3.67;;
17308;SDS011;8772;42.804;23.426;2022-07-25T01:11:16;7.40;;;3.97;;
17308;SDS011;8772;42.804;23.426;2022-07-25T01:13:43;9.80;;;4.50;;
17308;SDS011;8772;42.804;23.426;2022-07-25T01:16:10;8.27;;;4.57;;
17308;SDS011;8772;42.804;23.426;2022-07-25T01:18:37;6.73;;;3.90;;
17308;SDS011;8772;42.804;23.426;2022-07-25T01:21:05;6.97;;;4.13;;
17308;SDS011;8772;42.804;23.426;2022-07-25T01:23:33;10.87;;;5.10;;
17308;SDS011;8772;42.804;23.426;2022-07-25T01:26:00;8.70;;;4.50;;
17308;SDS011;8772;42.804;23.426;2022-07-25T01:28:27;7.93;;;4.67;;
17308;SDS011;8772;42.804;23.426;2022-07-25T01:30:54;6.90;;;4.53;;
17308;SDS011;8772;42.804;23.426;2022-07-25T01:33:21;8.77;;;3.87;;
17308;SDS011;8772;42.804;23.426;2022-07-25T01:35:48;10.40;;;4.80;;
17308;SDS011;8772;42.804;23.426;2022-07-25T01:38:17;7.30;;;4.07;;
17308;SDS011;8772;42.804;23.426;2022-07-25T01:40:44;6.83;;;3.73;;
17308;SDS011;8772;42.804;23.426;2022-07-25T01:43:11;10.93;;;3.63;;
17308;SDS011;8772;42.804;23.426;2022-07-25T01:45:38;6.77;;;4.00;;
17308;SDS011;8772;42.804;23.426;2022-07-25T01:48:05;9.40;;;4.33;;
17308;SDS011;8772;42.804;23.426;2022-07-25T01:50:32;5.47;;;3.63;;
17308;SDS011;8772;42.804;23.426;2022-07-25T01:52:59;5.70;;;3.90;;
17308;SDS011;8772;42.804;23.426;2022-07-25T01:55:28;5.57;;;3.47;;
17308;SDS011;8772;42.804;23.426;2022-07-25T01:57:55;5.47;;;3.67;;
17308;SDS011;8772;42.804;23.426;2022-07-25T02:00:22;9.17;;;4.03;;
17308;SDS011;8772;42.804;23.426;2022-07-25T02:02:49;5.90;;;3.63;;
17308;SDS011;8772;42.804;23.426;2022-07-25T02:05:36;5.43;;;3.17;;
17308;SDS011;8772;42.804;23.426;2022-07-25T02:08:03;6.33;;;3.70;;
17308;SDS011;8772;42.804;23.426;2022-07-25T02:10:32;5.47;;;3.37;;
17308;SDS011;8772;42.804;23.426;2022-07-25T02:12:59;6.33;;;3.83;;
17308;SDS011;8772;42.804;23.426;2022-07-25T02:15:26;8.00;;;4.27;;
17308;SDS011;8772;42.804;23.426;2022-07-25T02:17:53;6.07;;;3.73;;
17308;SDS011;8772;42.804;23.426;2022-07-25T02:20:20;6.73;;;4.20;;
17308;SDS011;8772;42.804;23.426;2022-07-25T02:22:47;5.70;;;3.53;;
17308;SDS011;8772;42.804;23.426;2022-07-25T02:25:14;6.47;;;3.87;;
17308;SDS011;8772;42.804;23.426;2022-07-25T02:27:42;8.83;;;4.10;;
17308;SDS011;8772;42.804;23.426;2022-07-25T02:30:09;8.27;;;3.60;;
17308;SDS011;8772;42.804;23.426;2022-07-25T02:32:37;6.80;;;3.53;;
17308;SDS011;8772;42.804;23.426;2022-07-25T02:35:04;5.43;;;3.60;;
17308;SDS011;8772;42.804;23.426;2022-07-25T02:37:32;5.53;;;3.40;;
17308;SDS011;8772;42.804;23.426;2022-07-25T02:39:59;6.33;;;3.70;;
17308;SDS011;8772;42.804;23.426;2022-07-25T02:42:26;6.47;;;3.87;;
17308;SDS011;8772;42.804;23.426;2022-07-25T02:44:54;6.20;;;3.60;;
17308;SDS011;8772;42.804;23.426;2022-07-25T02:47:21;6.37;;;3.70;;
17308;SDS011;8772;42.804;23.426;2022-07-25T02:49:48;6.77;;;3.77;;
17308;SDS011;8772;42.804;23.426;2022-07-25T02:52:15;5.43;;;3.40;;
17308;SDS011;8772;42.804;23.426;2022-07-25T02:54:42;5.17;;;2.93;;
17308;SDS011;8772;42.804;23.426;2022-07-25T02:57:09;6.77;;;3.90;;
17308;SDS011;8772;42.804;23.426;2022-07-25T02:59:36;4.43;;;3.13;;
17308;SDS011;8772;42.804;23.426;2022-07-25T03:02:04;9.40;;;3.77;;
17308;SDS011;8772;42.804;23.426;2022-07-25T03:04:31;12.40;;;3.67;;
17308;SDS011;8772;42.804;23.426;2022-07-25T03:06:58;7.53;;;3.60;;
17308;SDS011;8772;42.804;23.426;2022-07-25T03:09:25;7.77;;;3.73;;
17308;SDS011;8772;42.804;23.426;2022-07-25T03:11:52;5.63;;;3.47;;
17308;SDS011;8772;42.804;23.426;2022-07-25T03:14:19;5.93;;;3.40;;
17308;SDS011;8772;42.804;23.426;2022-07-25T03:16:46;5.10;;;3.47;;
17308;SDS011;8772;42.804;23.426;2022-07-25T03:19:15;4.27;;;3.10;;
17308;SDS011;8772;42.804;23.426;2022-07-25T03:21:41;7.77;;;3.20;;
17308;SDS011;8772;42.804;23.426;2022-07-25T03:24:09;4.53;;;3.20;;
17308;SDS011;8772;42.804;23.426;2022-07-25T03:26:36;5.70;;;3.60;;
17308;SDS011;8772;42.804;23.426;2022-07-25T03:29:03;6.43;;;3.27;;
17308;SDS011;8772;42.804;23.426;2022-07-25T03:31:30;7.13;;;3.50;;
17308;SDS011;8772;42.804;23.426;2022-07-25T03:33:57;5.93;;;3.20;;
17308;SDS011;8772;42.804;23.426;2022-07-25T03:36:25;6.60;;;3.00;;
17308;SDS011;8772;42.804;23.426;2022-07-25T03:38:52;5.03;;;3.30;;
17308;SDS011;8772;42.804;23.426;2022-07-25T03:41:20;5.40;;;3.30;;
17308;SDS011;8772;42.804;23.426;2022-07-25T03:43:47;6.53;;;3.23;;
17308;SDS011;8772;42.804;23.426;2022-07-25T03:46:14;6.27;;;2.87;;
17308;SDS011;8772;42.804;23.426;2022-07-25T03:48:41;6.00;;;3.33;;
17308;SDS011;8772;42.804;23.426;2022-07-25T03:51:08;3.77;;;2.53;;
17308;SDS011;8772;42.804;23.426;2022-07-25T03:53:37;3.87;;;2.23;;
17308;SDS011;8772;42.804;23.426;2022-07-25T03:56:17;5.30;;;3.37;;
17308;SDS011;8772;42.804;23.426;2022-07-25T03:58:44;5.43;;;3.77;;
17308;SDS011;8772;42.804;23.426;2022-07-25T04:01:11;7.10;;;3.23;;
17308;SDS011;8772;42.804;23.426;2022-07-25T04:03:38;5.03;;;3.53;;
17308;SDS011;8772;42.804;23.426;2022-07-25T04:06:05;5.63;;;3.30;;
17308;SDS011;8772;42.804;23.426;2022-07-25T04:08:32;5.67;;;2.80;;
17308;SDS011;8772;42.804;23.426;2022-07-25T04:11:00;4.83;;;2.87;;
17308;SDS011;8772;42.804;23.426;2022-07-25T04:13:27;3.83;;;2.73;;
17308;SDS011;8772;42.804;23.426;2022-07-25T04:15:54;5.57;;;3.27;;
17308;SDS011;8772;42.804;23.426;2022-07-25T04:18:21;4.43;;;3.37;;
17308;SDS011;8772;42.804;23.426;2022-07-25T04:20:48;6.97;;;3.27;;
17308;SDS011;8772;42.804;23.426;2022-07-25T04:23:15;4.47;;;3.13;;
17308;SDS011;8772;42.804;23.426;2022-07-25T04:25:42;4.23;;;2.87;;
17308;SDS011;8772;42.804;23.426;2022-07-25T04:28:10;5.47;;;3.17;;
17308;SDS011;8772;42.804;23.426;2022-07-25T04:30:37;6.80;;;3.23;;
17308;SDS011;8772;42.804;23.426;2022-07-25T04:33:04;6.33;;;3.30;;
17308;SDS011;8772;42.804;23.426;2022-07-25T04:35:31;5.80;;;3.13;;
17308;SDS011;8772;42.804;23.426;2022-07-25T04:37:58;5.17;;;3.27;;
17308;SDS011;8772;42.804;23.426;2022-07-25T04:40:26;5.70;;;3.57;;
17308;SDS011;8772;42.804;23.426;2022-07-25T04:42:52;8.20;;;3.73;;
17308;SDS011;8772;42.804;23.426;2022-07-25T04:45:21;5.27;;;3.17;;
17308;SDS011;8772;42.804;23.426;2022-07-25T04:47:48;7.03;;;3.73;;
17308;SDS011;8772;42.804;23.426;2022-07-25T04:50:15;4.90;;;3.07;;
17308;SDS011;8772;42.804;23.426;2022-07-25T04:52:42;10.93;;;4.97;;
17308;SDS011;8772;42.804;23.426;2022-07-25T04:55:10;11.07;;;4.20;;
17308;SDS011;8772;42.804;23.426;2022-07-25T04:57:37;6.40;;;3.50;;
17308;SDS011;8772;42.804;23.426;2022-07-25T05:00:04;6.30;;;3.50;;
17308;SDS011;8772;42.804;23.426;2022-07-25T05:02:35;5.67;;;3.63;;
17308;SDS011;8772;42.804;23.426;2022-07-25T05:05:03;5.43;;;3.30;;
17308;SDS011;8772;42.804;23.426;2022-07-25T05:07:30;6.67;;;3.37;;
17308;SDS011;8772;42.804;23.426;2022-07-25T05:09:57;7.57;;;4.13;;
17308;SDS011;8772;42.804;23.426;2022-07-25T05:12:24;6.40;;;4.20;;
17308;SDS011;8772;42.804;23.426;2022-07-25T05:14:51;7.00;;;2.93;;
17308;SDS011;8772;42.804;23.426;2022-07-25T05:17:19;7.83;;;3.73;;
17308;SDS011;8772;42.804;23.426;2022-07-25T05:19:47;7.70;;;4.00;;
17308;SDS011;8772;42.804;23.426;2022-07-25T05:22:14;4.97;;;3.67;;
17308;SDS011;8772;42.804;23.426;2022-07-25T05:24:41;6.60;;;3.93;;
17308;SDS011;8772;42.804;23.426;2022-07-25T05:27:08;6.47;;;3.63;;
17308;SDS011;8772;42.804;23.426;2022-07-25T05:29:35;5.63;;;3.73;;
17308;SDS011;8772;42.804;23.426;2022-07-25T05:32:03;7.63;;;4.40;;
17308;SDS011;8772;42.804;23.426;2022-07-25T05:34:30;6.53;;;4.60;;
17308;SDS011;8772;42.804;23.426;2022-07-25T05:36:59;6.27;;;3.97;;
17308;SDS011;8772;42.804;23.426;2022-07-25T05:39:26;7.47;;;4.60;;
17308;SDS011;8772;42.804;23.426;2022-07-25T05:41:53;8.10;;;4.30;;
17308;SDS011;8772;42.804;23.426;2022-07-25T05:44:20;8.87;;;4.37;;
17308;SDS011;8772;42.804;23.426;2022-07-25T05:46:47;11.10;;;4.93;;
17308;SDS011;8772;42.804;23.426;2022-07-25T05:49:14;6.80;;;4.23;;
17308;SDS011;8772;42.804;23.426;2022-07-25T05:51:41;8.33;;;4.70;;
17308;SDS011;8772;42.804;23.426;2022-07-25T05:54:09;13.03;;;3.87;;
17308;SDS011;8772;42.804;23.426;2022-07-25T05:56:36;7.40;;;4.50;;
17308;SDS011;8772;42.804;23.426;2022-07-25T05:59:03;5.63;;;3.67;;
17308;SDS011;8772;42.804;23.426;2022-07-25T06:01:30;7.50;;;4.23;;
17308;SDS011;8772;42.804;23.426;2022-07-25T06:03:58;8.30;;;4.33;;
17308;SDS011;8772;42.804;23.426;2022-07-25T06:06:25;6.17;;;3.47;;
17308;SDS011;8772;42.804;23.426;2022-07-25T06:08:56;6.23;;;3.53;;
17308;SDS011;8772;42.804;23.426;2022-07-25T06:11:25;8.63;;;4.20;;
17308;SDS011;8772;42.804;23.426;2022-07-25T06:13:52;5.63;;;3.87;;
17308;SDS011;8772;42.804;23.426;2022-07-25T06:16:19;6.67;;;3.77;;
17308;SDS011;8772;42.804;23.426;2022-07-25T06:18:46;6.87;;;3.20;;
17308;SDS011;8772;42.804;23.426;2022-07-25T06:21:13;11.23;;;4.90;;
17308;SDS011;8772;42.804;23.426;2022-07-25T06:23:40;8.33;;;4.07;;
17308;SDS011;8772;42.804;23.426;2022-07-25T06:26:07;10.93;;;4.47;;
17308;SDS011;8772;42.804;23.426;2022-07-25T06:28:37;6.57;;;3.83;;
17308;SDS011;8772;42.804;23.426;2022-07-25T06:31:04;16.87;;;4.00;;
17308;SDS011;8772;42.804;23.426;2022-07-25T06:33:31;8.57;;;4.27;;
17308;SDS011;8772;42.804;23.426;2022-07-25T06:35:58;10.40;;;4.30;;
17308;SDS011;8772;42.804;23.426;2022-07-25T06:38:25;8.80;;;3.80;;
17308;SDS011;8772;42.804;23.426;2022-07-25T06:40:52;7.35;;;3.90;;
17308;SDS011;8772;42.804;23.426;2022-07-25T06:43:19;7.30;;;3.97;;
17308;SDS011;8772;42.804;23.426;2022-07-25T06:45:47;7.43;;;4.03;;
17308;SDS011;8772;42.804;23.426;2022-07-25T06:48:14;7.50;;;4.03;;
17308;SDS011;8772;42.804;23.426;2022-07-25T06:50:43;6.90;;;4.22;;
17308;SDS011;8772;42.804;23.426;2022-07-25T06:53:10;13.20;;;4.22;;
17308;SDS011;8772;42.804;23.426;2022-07-25T06:55:38;10.50;;;3.97;;
17308;SDS011;8772;42.804;23.426;2022-07-25T06:58:05;7.40;;;3.78;;
17308;SDS011;8772;42.804;23.426;2022-07-25T07:00:32;6.75;;;3.78;;
17308;SDS011;8772;42.804;23.426;2022-07-25T07:03:00;5.28;;;3.45;;
17308;SDS011;8772;42.804;23.426;2022-07-25T07:05:29;6.57;;;3.58;;
17308;SDS011;8772;42.804;23.426;2022-07-25T07:07:57;5.90;;;3.58;;
17308;SDS011;8772;42.804;23.426;2022-07-25T07:10:25;10.48;;;3.90;;
17308;SDS011;8772;42.804;23.426;2022-07-25T07:13:01;6.35;;;3.53;;
17308;SDS011;8772;42.804;23.426;2022-07-25T07:15:30;6.65;;;3.70;;
17308;SDS011;8772;42.804;23.426;2022-07-25T07:17:57;5.78;;;3.55;;
17308;SDS011;8772;42.804;23.426;2022-07-25T07:20:25;10.00;;;4.25;;
17308;SDS011;8772;42.804;23.426;2022-07-25T07:22:52;7.30;;;3.20;;
17308;SDS011;8772;42.804;23.426;2022-07-25T07:25:19;6.15;;;3.63;;
17308;SDS011;8772;42.804;23.426;2022-07-25T07:27:48;5.75;;;3.38;;
17308;SDS011;8772;42.804;23.426;2022-07-25T07:30:16;4.88;;;2.92;;
17308;SDS011;8772;42.804;23.426;2022-07-25T07:32:44;4.40;;;3.00;;
17308;SDS011;8772;42.804;23.426;2022-07-25T07:35:11;6.20;;;3.50;;
17308;SDS011;8772;42.804;23.426;2022-07-25T07:37:42;6.00;;;2.92;;
17308;SDS011;8772;42.804;23.426;2022-07-25T07:40:10;4.72;;;3.17;;
17308;SDS011;8772;42.804;23.426;2022-07-25T07:42:38;5.13;;;3.10;;
17308;SDS011;8772;42.804;23.426;2022-07-25T07:45:10;4.72;;;2.95;;
17308;SDS011;8772;42.804;23.426;2022-07-25T07:47:38;7.15;;;3.58;;
17308;SDS011;8772;42.804;23.426;2022-07-25T07:50:06;6.47;;;3.75;;
17308;SDS011;8772;42.804;23.426;2022-07-25T07:52:34;4.80;;;3.13;;
17308;SDS011;8772;42.804;23.426;2022-07-25T07:55:03;7.90;;;3.75;;
17308;SDS011;8772;42.804;23.426;2022-07-25T07:57:48;6.35;;;3.00;;
17308;SDS011;8772;42.804;23.426;2022-07-25T08:00:15;6.68;;;3.45;;
17308;SDS011;8772;42.804;23.426;2022-07-25T08:02:43;10.73;;;3.60;;
17308;SDS011;8772;42.804;23.426;2022-07-25T08:05:12;8.77;;;3.63;;
17308;SDS011;8772;42.804;23.426;2022-07-25T08:07:39;5.00;;;2.95;;
17308;SDS011;8772;42.804;23.426;2022-07-25T08:10:08;4.93;;;2.97;;
17308;SDS011;8772;42.804;23.426;2022-07-25T08:12:38;5.93;;;2.97;;
17308;SDS011;8772;42.804;23.426;2022-07-25T08:15:07;4.88;;;3.03;;
17308;SDS011;8772;42.804;23.426;2022-07-25T08:17:35;6.68;;;3.33;;
17308;SDS011;8772;42.804;23.426;2022-07-25T08:20:02;6.85;;;3.65;;
17308;SDS011;8772;42.804;23.426;2022-07-25T08:22:35;5.50;;;2.95;;
17308;SDS011;8772;42.804;23.426;2022-07-25T08:25:04;4.95;;;2.50;;
17308;SDS011;8772;42.804;23.426;2022-07-25T08:27:34;5.22;;;3.10;;
17308;SDS011;8772;42.804;23.426;2022-07-25T08:30:01;5.43;;;3.03;;
17308;SDS011;8772;42.804;23.426;2022-07-25T08:32:29;5.32;;;2.75;;
17308;SDS011;8772;42.804;23.426;2022-07-25T08:34:56;4.95;;;2.80;;
17308;SDS011;8772;42.804;23.426;2022-07-25T08:37:23;5.63;;;3.30;;
17308;SDS011;8772;42.804;23.426;2022-07-25T08:39:51;7.40;;;2.72;;
17308;SDS011;8772;42.804;23.426;2022-07-25T08:42:18;5.13;;;3.42;;
17308;SDS011;8772;42.804;23.426;2022-07-25T08:44:48;4.53;;;2.95;;
17308;SDS011;8772;42.804;23.426;2022-07-25T08:47:20;4.60;;;2.72;;
17308;SDS011;8772;42.804;23.426;2022-07-25T08:49:48;4.38;;;2.78;;
17308;SDS011;8772;42.804;23.426;2022-07-25T08:52:15;6.00;;;2.97;;
17308;SDS011;8772;42.804;23.426;2022-07-25T08:54:44;6.80;;;2.70;;
17308;SDS011;8772;42.804;23.426;2022-07-25T08:57:12;4.60;;;2.55;;
17308;SDS011;8772;42.804;23.426;2022-07-25T08:59:39;4.53;;;2.92;;
17308;SDS011;8772;42.804;23.426;2022-07-25T09:02:11;5.47;;;2.67;;
17308;SDS011;8772;42.804;23.426;2022-07-25T09:04:38;4.32;;;2.63;;
17308;SDS011;8772;42.804;23.426;2022-07-25T09:07:07;6.15;;;2.75;;
17308;SDS011;8772;42.804;23.426;2022-07-25T09:09:35;4.75;;;2.38;;
17308;SDS011;8772;42.804;23.426;2022-07-25T09:12:04;4.30;;;2.90;;
17308;SDS011;8772;42.804;23.426;2022-07-25T09:14:39;5.72;;;3.38;;
17308;SDS011;8772;42.804;23.426;2022-07-25T09:17:09;4.07;;;2.30;;
17308;SDS011;8772;42.804;23.426;2022-07-25T09:19:36;5.00;;;2.83;;
17308;SDS011;8772;42.804;23.426;2022-07-25T09:22:04;4.35;;;2.75;;
17308;SDS011;8772;42.804;23.426;2022-07-25T09:24:33;3.08;;;2.05;;
17308;SDS011;8772;42.804;23.426;2022-07-25T09:27:01;2.78;;;1.90;;
17308;SDS011;8772;42.804;23.426;2022-07-25T09:29:34;3.03;;;2.00;;
17308;SDS011;8772;42.804;23.426;2022-07-25T09:32:14;3.50;;;2.17;;
17308;SDS011;8772;42.804;23.426;2022-07-25T09:34:43;3.42;;;1.92;;
17308;SDS011;8772;42.804;23.426;2022-07-25T09:37:12;3.47;;;1.88;;
17308;SDS011;8772;42.804;23.426;2022-07-25T09:39:43;2.53;;;1.70;;
17308;SDS011;8772;42.804;23.426;2022-07-25T09:42:15;3.15;;;1.92;;
17308;SDS011;8772;42.804;23.426;2022-07-25T09:44:55;3.05;;;2.03;;
17308;SDS011;8772;42.804;23.426;2022-07-25T09:47:24;2.85;;;2.10;;
17308;SDS011;8772;42.804;23.426;2022-07-25T09:49:52;3.45;;;2.20;;
17308;SDS011;8772;42.804;23.426;2022-07-25T09:52:19;3.33;;;1.98;;
17308;SDS011;8772;42.804;23.426;2022-07-25T09:54:46;2.97;;;1.90;;
17308;SDS011;8772;42.804;23.426;2022-07-25T09:57:13;4.35;;;2.10;;
17308;SDS011;8772;42.804;23.426;2022-07-25T09:59:40;3.53;;;1.77;;
17308;SDS011;8772;42.804;23.426;2022-07-25T10:02:09;5.10;;;1.80;;
17308;SDS011;8772;42.804;23.426;2022-07-25T10:04:45;3.20;;;2.08;;
17308;SDS011;8772;42.804;23.426;2022-07-25T10:07:18;2.78;;;1.92;;
17308;SDS011;8772;42.804;23.426;2022-07-25T10:09:47;3.05;;;1.80;;
17308;SDS011;8772;42.804;23.426;2022-07-25T10:12:17;3.10;;;1.90;;
17308;SDS011;8772;42.804;23.426;2022-07-25T10:17:31;8.80;;;1.90;;
17308;SDS011;8772;42.804;23.426;2022-07-25T10:20:00;4.80;;;1.55;;
17308;SDS011;8772;42.804;23.426;2022-07-25T10:22:40;3.10;;;2.17;;
17308;SDS011;8772;42.804;23.426;2022-07-25T10:25:09;2.75;;;1.70;;
17308;SDS011;8772;42.804;23.426;2022-07-25T10:27:42;3.80;;;1.92;;
17308;SDS011;8772;42.804;23.426;2022-07-25T10:30:19;3.35;;;1.83;;
17308;SDS011;8772;42.804;23.426;2022-07-25T10:32:55;2.75;;;2.13;;
17308;SDS011;8772;42.804;23.426;2022-07-25T10:35:25;3.30;;;2.20;;
17308;SDS011;8772;42.804;23.426;2022-07-25T10:37:53;2.85;;;1.80;;
17308;SDS011;8772;42.804;23.426;2022-07-25T10:40:26;2.45;;;1.63;;
17308;SDS011;8772;42.804;23.426;2022-07-25T10:42:55;3.17;;;1.58;;
17308;SDS011;8772;42.804;23.426;2022-07-25T10:45:32;2.08;;;1.73;;
17308;SDS011;8772;42.804;23.426;2022-07-25T10:48:08;2.58;;;1.58;;
17308;SDS011;8772;42.804;23.426;2022-07-25T10:50:48;3.45;;;2.00;;
17308;SDS011;8772;42.804;23.426;2022-07-25T10:53:26;1.92;;;1.45;;
17308;SDS011;8772;42.804;23.426;2022-07-25T10:55:56;3.97;;;2.05;;
17308;SDS011;8772;42.804;23.426;2022-07-25T10:58:24;3.42;;;1.98;;
17308;SDS011;8772;42.804;23.426;2022-07-25T11:00:52;3.38;;;2.22;;
17308;SDS011;8772;42.804;23.426;2022-07-25T11:03:19;2.47;;;1.30;;
17308;SDS011;8772;42.804;23.426;2022-07-25T11:05:48;3.92;;;2.40;;
17308;SDS011;8772;42.804;23.426;2022-07-25T11:08:28;2.53;;;1.77;;
17308;SDS011;8772;42.804;23.426;2022-07-25T11:10:56;4.70;;;2.00;;
17308;SDS011;8772;42.804;23.426;2022-07-25T11:13:23;6.25;;;1.92;;
17308;SDS011;8772;42.804;23.426;2022-07-25T11:15:50;2.75;;;1.42;;
17308;SDS011;8772;42.804;23.426;2022-07-25T11:18:29;2.42;;;1.60;;
17308;SDS011;8772;42.804;23.426;2022-07-25T11:20:58;3.20;;;1.55;;
17308;SDS011;8772;42.804;23.426;2022-07-25T11:23:26;4.05;;;2.00;;
17308;SDS011;8772;42.804;23.426;2022-07-25T11:26:02;2.97;;;1.77;;
17308;SDS011;8772;42.804;23.426;2022-07-25T11:28:37;4.13;;;1.95;;
17308;SDS011;8772;42.804;23.426;2022-07-25T11:31:09;2.70;;;1.95;;
17308;SDS011;8772;42.804;23.426;2022-07-25T11:33:36;2.75;;;1.63;;
17308;SDS011;8772;42.804;23.426;2022-07-25T11:36:09;2.90;;;1.90;;
17308;SDS011;8772;42.804;23.426;2022-07-25T11:38:37;1.95;;;1.38;;
17308;SDS011;8772;42.804;23.426;2022-07-25T11:41:05;2.80;;;1.73;;
17308;SDS011;8772;42.804;23.426;2022-07-25T11:43:32;2.50;;;1.63;;
17308;SDS011;8772;42.804;23.426;2022-07-25T11:46:00;2.55;;;1.73;;
17308;SDS011;8772;42.804;23.426;2022-07-25T11:48:31;2.40;;;1.70;;
17308;SDS011;8772;42.804;23.426;2022-07-25T11:51:11;2.33;;;1.60;;
17308;SDS011;8772;42.804;23.426;2022-07-25T11:53:41;3.10;;;1.70;;
17308;SDS011;8772;42.804;23.426;2022-07-25T11:56:11;3.03;;;2.08;;
17308;SDS011;8772;42.804;23.426;2022-07-25T11:58:39;2.42;;;1.85;;
17308;SDS011;8772;42.804;23.426;2022-07-25T12:01:10;3.70;;;2.00;;
17308;SDS011;8772;42.804;23.426;2022-07-25T12:03:38;4.07;;;1.90;;
17308;SDS011;8772;42.804;23.426;2022-07-25T12:06:06;3.42;;;1.92;;
17308;SDS011;8772;42.804;23.426;2022-07-25T12:08:37;4.20;;;2.42;;
17308;SDS011;8772;42.804;23.426;2022-07-25T12:11:15;6.30;;;2.47;;
17308;SDS011;8772;42.804;23.426;2022-07-25T12:13:45;2.92;;;2.10;;
17308;SDS011;8772;42.804;23.426;2022-07-25T12:16:12;2.65;;;1.95;;
17308;SDS011;8772;42.804;23.426;2022-07-25T12:18:39;3.03;;;2.00;;
17308;SDS011;8772;42.804;23.426;2022-07-25T12:21:06;2.72;;;1.75;;
17308;SDS011;8772;42.804;23.426;2022-07-25T12:23:33;3.20;;;1.98;;
17308;SDS011;8772;42.804;23.426;2022-07-25T12:26:03;2.35;;;1.92;;
17308;SDS011;8772;42.804;23.426;2022-07-25T12:28:30;6.63;;;2.30;;
17308;SDS011;8772;42.804;23.426;2022-07-25T12:30:57;3.33;;;2.13;;
17308;SDS011;8772;42.804;23.426;2022-07-25T12:33:24;3.33;;;1.73;;
17308;SDS011;8772;42.804;23.426;2022-07-25T12:35:51;2.88;;;1.85;;
17308;SDS011;8772;42.804;23.426;2022-07-25T12:38:18;2.88;;;2.10;;
17308;SDS011;8772;42.804;23.426;2022-07-25T12:40:45;6.25;;;2.60;;
17308;SDS011;8772;42.804;23.426;2022-07-25T12:43:13;3.95;;;2.42;;
17308;SDS011;8772;42.804;23.426;2022-07-25T12:45:40;3.55;;;2.25;;
17308;SDS011;8772;42.804;23.426;2022-07-25T12:48:07;7.38;;;2.35;;
17308;SDS011;8772;42.804;23.426;2022-07-25T12:50:35;4.28;;;2.20;;
17308;SDS011;8772;42.804;23.426;2022-07-25T12:53:01;3.00;;;2.00;;
17308;SDS011;8772;42.804;23.426;2022-07-25T12:55:29;3.30;;;2.00;;
17308;SDS011;8772;42.804;23.426;2022-07-25T12:57:56;4.20;;;2.47;;
17308;SDS011;8772;42.804;23.426;2022-07-25T13:00:24;3.33;;;2.20;;
17308;SDS011;8772;42.804;23.426;2022-07-25T13:02:51;3.65;;;1.92;;
17308;SDS011;8772;42.804;23.426;2022-07-25T13:05:21;3.70;;;2.08;;
17308;SDS011;8772;42.804;23.426;2022-07-25T13:07:49;3.15;;;2.13;;
17308;SDS011;8772;42.804;23.426;2022-07-25T13:10:16;6.85;;;2.22;;
17308;SDS011;8772;42.804;23.426;2022-07-25T13:12:44;2.97;;;2.08;;
17308;SDS011;8772;42.804;23.426;2022-07-25T13:15:11;3.38;;;2.08;;
17308;SDS011;8772;42.804;23.426;2022-07-25T13:17:39;3.13;;;2.17;;
17308;SDS011;8772;42.804;23.426;2022-07-25T13:20:07;3.65;;;2.38;;
17308;SDS011;8772;42.804;23.426;2022-07-25T13:22:35;2.95;;;2.05;;
17308;SDS011;8772;42.804;23.426;2022-07-25T13:25:02;2.88;;;2.17;;
17308;SDS011;8772;42.804;23.426;2022-07-25T13:27:30;4.65;;;2.60;;
17308;SDS011;8772;42.804;23.426;2022-07-25T13:29:57;3.10;;;2.30;;
17308;SDS011;8772;42.804;23.426;2022-07-25T13:32:24;3.78;;;2.13;;
17308;SDS011;8772;42.804;23.426;2022-07-25T13:34:54;4.10;;;2.33;;
17308;SDS011;8772;42.804;23.426;2022-07-25T13:37:21;4.28;;;2.88;;
17308;SDS011;8772;42.804;23.426;2022-07-25T13:39:49;4.13;;;2.70;;
17308;SDS011;8772;42.804;23.426;2022-07-25T13:42:16;4.22;;;2.35;;
17308;SDS011;8772;42.804;23.426;2022-07-25T13:44:43;5.03;;;2.67;;
17308;SDS011;8772;42.804;23.426;2022-07-25T13:47:10;3.78;;;2.33;;
17308;SDS011;8772;42.804;23.426;2022-07-25T13:49:37;4.50;;;2.55;;
17308;SDS011;8772;42.804;23.426;2022-07-25T13:52:06;4.10;;;2.78;;
17308;SDS011;8772;42.804;23.426;2022-07-25T13:54:33;4.93;;;2.88;;
17308;SDS011;8772;42.804;23.426;2022-07-25T13:57:00;6.78;;;2.33;;
17308;SDS011;8772;42.804;23.426;2022-07-25T13:59:28;6.45;;;2.78;;
17308;SDS011;8772;42.804;23.426;2022-07-25T14:01:55;4.63;;;2.88;;
17308;SDS011;8772;42.804;23.426;2022-07-25T14:04:22;5.20;;;3.03;;
17308;SDS011;8772;42.804;23.426;2022-07-25T14:06:49;7.82;;;2.67;;
17308;SDS011;8772;42.804;23.426;2022-07-25T14:09:19;2.90;;;2.22;;
17308;SDS011;8772;42.804;23.426;2022-07-25T14:11:46;4.35;;;2.70;;
17308;SDS011;8772;42.804;23.426;2022-07-25T14:14:13;6.10;;;3.00;;
17308;SDS011;8772;42.804;23.426;2022-07-25T14:16:40;5.07;;;2.72;;
17308;SDS011;8772;42.804;23.426;2022-07-25T14:19:07;4.47;;;2.50;;
17308;SDS011;8772;42.804;23.426;2022-07-25T14:21:35;4.90;;;2.80;;
17308;SDS011;8772;42.804;23.426;2022-07-25T14:24:02;4.03;;;2.70;;
17308;SDS011;8772;42.804;23.426;2022-07-25T14:26:31;4.18;;;2.42;;
17308;SDS011;8772;42.804;23.426;2022-07-25T14:28:59;4.97;;;2.92;;
17308;SDS011;8772;42.804;23.426;2022-07-25T14:31:25;5.00;;;3.00;;
17308;SDS011;8772;42.804;23.426;2022-07-25T14:33:52;3.17;;;2.22;;
17308;SDS011;8772;42.804;23.426;2022-07-25T14:36:19;5.47;;;2.90;;
17308;SDS011;8772;42.804;23.426;2022-07-25T14:38:46;5.25;;;3.00;;
17308;SDS011;8772;42.804;23.426;2022-07-25T14:41:13;3.97;;;2.42;;
17308;SDS011;8772;42.804;23.426;2022-07-25T14:43:42;4.65;;;3.00;;
17308;SDS011;8772;42.804;23.426;2022-07-25T14:46:09;5.38;;;3.33;;
17308;SDS011;8772;42.804;23.426;2022-07-25T14:48:37;5.40;;;3.00;;
17308;SDS011;8772;42.804;23.426;2022-07-25T14:51:04;6.63;;;2.80;;
17308;SDS011;8772;42.804;23.426;2022-07-25T14:53:32;3.40;;;2.63;;
17308;SDS011;8772;42.804;23.426;2022-07-25T14:56:00;5.80;;;3.10;;
17308;SDS011;8772;42.804;23.426;2022-07-25T14:58:28;3.97;;;2.60;;
17308;SDS011;8772;42.804;23.426;2022-07-25T15:00:57;4.35;;;2.60;;